Aviation Digital Data Service (ADDS)

Output produced by TAFs form (1738 UTC 21 April 2018)
found at http://aviationweather.gov/adds/tafs/
 
RJOH 211700Z 18003KT 9999 SCT/// 13/08 Q1020
TAF RJOH 211708Z 2118/2300 22006KT 9999 FEW030 
     BECMG 2202/2204 34005KT 
     BECMG 2212/2215 16004KT 
     TEMPO 2218/2300 2000 BR BCFG FEW000 SCT005 BKN009